createdAt,value
2022-09-23T00:01:20.605Z,7.59
2022-09-23T00:03:51.478Z,7.58
2022-09-23T00:06:20.734Z,7.55
2022-09-23T00:08:51.898Z,7.51
2022-09-23T00:11:24.323Z,7.49
2022-09-23T00:13:53.518Z,7.47
2022-09-23T00:16:29.300Z,7.47
2022-09-23T00:18:57.256Z,7.47
2022-09-23T00:21:25.370Z,7.47
2022-09-23T00:23:53.470Z,7.42
2022-09-23T00:26:22.029Z,7.40
2022-09-23T00:28:50.024Z,7.38
2022-09-23T00:31:19.816Z,7.36
2022-09-23T00:33:47.791Z,7.33
2022-09-23T00:36:16.375Z,7.28
2022-09-23T00:38:44.457Z,7.27
2022-09-23T00:41:15.291Z,7.31
2022-09-23T00:43:45.210Z,7.30
2022-09-23T00:46:18.739Z,7.28
2022-09-23T00:48:48.493Z,7.29
2022-09-23T00:51:18.411Z,7.31
2022-09-23T00:53:47.610Z,7.31
2022-09-23T00:56:15.849Z,7.32
2022-09-23T00:58:47.005Z,7.37
2022-09-23T01:01:14.933Z,7.42
2022-09-23T01:03:44.784Z,7.40
2022-09-23T01:06:13.297Z,7.37
2022-09-23T01:08:42.493Z,7.36
2022-09-23T01:11:17.639Z,7.33
2022-09-23T01:14:03.785Z,7.33
2022-09-23T01:16:43.769Z,7.29
2022-09-23T01:19:21.080Z,7.28
2022-09-23T01:21:54.968Z,7.25
2022-09-23T01:24:49.339Z,7.23
2022-09-23T01:27:34.415Z,7.20
2022-09-23T01:30:07.167Z,7.16
2022-09-23T01:32:38.059Z,7.13
2022-09-23T01:35:23.829Z,7.11
2022-09-23T01:38:14.044Z,7.07
2022-09-23T01:40:48.412Z,7.06
2022-09-23T01:43:22.343Z,7.03
2022-09-23T01:45:56.468Z,7.01
2022-09-23T01:48:28.723Z,7.02
2022-09-23T01:51:00.778Z,7.00
2022-09-23T01:53:49.814Z,7.02
2022-09-23T01:56:51.953Z,7.06
2022-09-23T01:59:23.073Z,7.00
2022-09-23T02:01:56.757Z,7.00
2022-09-23T02:04:28.386Z,6.96
2022-09-23T02:07:01.047Z,6.94
2022-09-23T02:09:34.048Z,6.96
2022-09-23T02:12:05.838Z,6.93
2022-09-23T02:14:38.593Z,6.86
2022-09-23T02:17:10.238Z,6.85
2022-09-23T02:19:49.083Z,6.84
2022-09-23T02:22:26.806Z,6.77
2022-09-23T02:24:55.866Z,6.73
2022-09-23T02:27:26.065Z,6.66
2022-09-23T02:30:11.929Z,6.60
2022-09-23T02:32:52.103Z,6.56
2022-09-23T02:35:33.310Z,6.51
2022-09-23T02:38:16.675Z,6.47
2022-09-23T02:40:47.547Z,6.44
2022-09-23T02:43:15.454Z,6.41
2022-09-23T02:45:43.109Z,6.36
2022-09-23T02:48:16.661Z,6.34
2022-09-23T02:50:44.935Z,6.33
2022-09-23T02:53:12.764Z,6.30
2022-09-23T02:55:41.296Z,6.29
2022-09-23T02:58:10.068Z,6.29
2022-09-23T03:00:59.487Z,6.32
2022-09-23T03:03:36.801Z,6.35
2022-09-23T03:06:13.784Z,6.40
2022-09-23T03:08:48.478Z,6.43
2022-09-23T03:11:17.687Z,6.39
2022-09-23T03:13:46.552Z,6.39
2022-09-23T03:16:24.324Z,6.42
2022-09-23T03:18:56.099Z,6.42
2022-09-23T03:21:27.069Z,6.49
2022-09-23T03:23:57.384Z,6.52
2022-09-23T03:26:29.161Z,6.51
2022-09-23T03:28:58.850Z,6.52
2022-09-23T03:31:26.684Z,6.58
2022-09-23T03:33:57.285Z,6.55
2022-09-23T03:36:46.878Z,6.49
2022-09-23T03:39:26.479Z,6.42
2022-09-23T03:41:56.466Z,6.43
2022-09-23T03:44:24.752Z,6.38
2022-09-23T03:46:52.532Z,6.36
2022-09-23T03:49:25.160Z,6.36
2022-09-23T03:51:54.020Z,6.35
2022-09-23T03:54:21.873Z,6.36
2022-09-23T03:56:49.741Z,6.33
2022-09-23T03:59:17.535Z,6.34
2022-09-23T04:01:46.212Z,6.38
2022-09-23T04:04:14.112Z,6.45
2022-09-23T04:06:41.795Z,6.51
2022-09-23T04:09:09.736Z,6.54
2022-09-23T04:11:37.695Z,6.55
2022-09-23T04:14:05.743Z,6.53
2022-09-23T04:16:33.496Z,6.54
2022-09-23T04:19:01.361Z,6.54
2022-09-23T04:21:31.137Z,6.54
2022-09-23T04:23:58.780Z,6.53
2022-09-23T04:26:26.696Z,6.52
2022-09-23T04:28:54.769Z,6.52
2022-09-23T04:31:25.426Z,6.54
2022-09-23T04:33:53.655Z,6.55
2022-09-23T04:36:21.324Z,6.58
2022-09-23T04:38:49.415Z,6.64
2022-09-23T04:41:18.525Z,6.73
2022-09-23T04:43:46.573Z,6.77
2022-09-23T04:46:15.740Z,6.80
2022-09-23T04:48:43.716Z,6.85
2022-09-23T04:51:14.745Z,6.86
2022-09-23T04:53:43.525Z,6.94
2022-09-23T04:56:13.583Z,7.00
2022-09-23T04:58:41.390Z,7.02
2022-09-23T05:01:18.359Z,7.05
2022-09-23T05:03:47.435Z,7.09
2022-09-23T05:06:15.236Z,7.12
2022-09-23T05:08:47.352Z,7.13
2022-09-23T05:11:15.937Z,7.12
2022-09-23T05:13:43.767Z,7.17
2022-09-23T05:16:12.540Z,7.18
2022-09-23T05:18:42.964Z,7.16
2022-09-23T05:21:12.131Z,7.16
2022-09-23T05:23:40.871Z,7.18
2022-09-23T05:26:09.986Z,7.21
2022-09-23T05:28:39.473Z,7.25
2022-09-23T05:31:19.580Z,7.31
2022-09-23T05:33:49.884Z,7.39
2022-09-23T05:36:18.947Z,7.48
2022-09-23T05:38:48.717Z,7.52
2022-09-23T05:41:17.673Z,7.56
2022-09-23T05:43:45.395Z,7.61
2022-09-23T05:46:20.458Z,7.64
2022-09-23T05:48:48.332Z,7.64
2022-09-23T05:51:18.581Z,7.62
2022-09-23T05:53:47.104Z,7.62
2022-09-23T05:56:16.245Z,7.63
2022-09-23T05:58:44.721Z,7.69
2022-09-23T06:01:14.296Z,7.74
2022-09-23T06:03:42.084Z,7.77
2022-09-23T06:06:14.699Z,7.83
2022-09-23T06:08:42.743Z,7.86
2022-09-23T06:11:12.434Z,7.89
2022-09-23T06:13:41.431Z,7.96
2022-09-23T06:16:10.744Z,8.02
2022-09-23T06:18:39.530Z,8.07
2022-09-23T06:21:08.461Z,8.14
2022-09-23T06:23:39.205Z,8.19
2022-09-23T06:26:10.191Z,8.26
2022-09-23T06:28:39.295Z,8.31
2022-09-23T06:31:17.186Z,8.33
2022-09-23T06:33:46.382Z,8.36
2022-09-23T06:36:24.949Z,8.43
2022-09-23T06:39:02.491Z,8.54
2022-09-23T06:41:30.353Z,8.60
2022-09-23T06:43:59.140Z,8.64
2022-09-23T06:46:27.057Z,8.66
2022-09-23T06:48:54.975Z,8.68
2022-09-23T06:51:22.825Z,8.70
2022-09-23T06:53:50.690Z,8.71
2022-09-23T06:56:20.082Z,8.72
2022-09-23T06:58:48.383Z,8.76
2022-09-23T07:01:16.999Z,8.82
2022-09-23T07:03:46.063Z,8.88
2022-09-23T07:06:13.946Z,8.91
2022-09-23T07:08:46.925Z,8.96
2022-09-23T07:11:15.404Z,9.00
2022-09-23T07:13:43.264Z,9.06
2022-09-23T07:16:11.529Z,9.08
2022-09-23T07:18:39.686Z,9.12
2022-09-23T07:21:09.010Z,9.17
2022-09-23T07:23:37.898Z,9.20
2022-09-23T07:26:05.869Z,9.23
2022-09-23T07:28:33.760Z,9.28
2022-09-23T07:31:07.089Z,9.38
2022-09-23T07:33:36.591Z,9.51
2022-09-23T07:36:05.827Z,9.57
2022-09-23T07:38:34.158Z,9.61
2022-09-23T07:41:03.614Z,9.68
2022-09-23T07:43:34.657Z,9.73
2022-09-23T07:46:08.411Z,9.81
2022-09-23T07:48:36.947Z,9.91
2022-09-23T07:51:35.720Z,9.99
2022-09-23T07:54:08.150Z,10.05
2022-09-23T07:56:37.057Z,10.15
2022-09-23T07:59:06.096Z,10.24
2022-09-23T08:01:35.425Z,10.35
2022-09-23T08:04:12.295Z,10.45
2022-09-23T08:06:44.642Z,10.54
2022-09-23T08:09:12.841Z,10.62
2022-09-23T08:11:42.168Z,10.69
2022-09-23T08:14:11.245Z,10.79
2022-09-23T08:16:39.995Z,10.90
2022-09-23T08:19:08.231Z,11.00
2022-09-23T08:21:37.775Z,11.11
2022-09-23T08:24:06.394Z,11.16
2022-09-23T08:26:35.242Z,11.22
2022-09-23T08:29:03.182Z,11.27
2022-09-23T08:31:31.239Z,11.30
2022-09-23T08:33:59.715Z,11.33
2022-09-23T08:36:28.143Z,11.43
2022-09-23T08:38:57.400Z,11.47
2022-09-23T08:41:25.150Z,11.51
2022-09-23T08:43:56.538Z,11.59
2022-09-23T08:46:31.174Z,11.66
2022-09-23T08:48:59.754Z,11.64
2022-09-23T08:51:35.410Z,11.66
2022-09-23T08:54:03.263Z,11.74
2022-09-23T08:56:35.247Z,11.79
2022-09-23T08:59:23.246Z,11.82
2022-09-23T09:01:57.764Z,11.87
2022-09-23T09:04:37.655Z,11.90
2022-09-23T09:07:34.780Z,11.92
2022-09-23T09:09:58.977Z,11.94
2022-09-23T09:12:32.761Z,11.99
2022-09-23T09:15:03.215Z,12.04
2022-09-23T09:17:35.082Z,12.10
2022-09-23T09:20:07.681Z,12.18
2022-09-23T09:22:46.047Z,12.19
2022-09-23T09:25:16.539Z,12.19
2022-09-23T09:27:44.655Z,12.18
2022-09-23T09:30:14.676Z,12.17
2022-09-23T09:32:48.482Z,12.22
2022-09-23T09:35:21.716Z,12.26
2022-09-23T09:37:49.494Z,12.24
2022-09-23T09:40:17.993Z,12.24
2022-09-23T09:42:50.334Z,12.27
2022-09-23T09:45:37.880Z,12.29
2022-09-23T09:48:11.009Z,12.31
2022-09-23T09:50:43.810Z,12.32
2022-09-23T09:53:25.899Z,12.32
2022-09-23T09:56:04.347Z,12.36
2022-09-23T09:58:46.719Z,12.41
2022-09-23T10:01:35.144Z,12.54
2022-09-23T10:04:22.778Z,12.66
2022-09-23T10:07:07.923Z,12.77
2022-09-23T10:09:36.599Z,12.83
2022-09-23T10:12:10.876Z,12.91
2022-09-23T10:14:38.652Z,13.02
2022-09-23T10:17:08.165Z,13.10
2022-09-23T10:19:38.178Z,13.16
2022-09-23T10:22:15.569Z,13.18
2022-09-23T10:24:47.907Z,13.20
2022-09-23T10:27:17.031Z,13.28
2022-09-23T10:29:47.880Z,13.35
2022-09-23T10:32:37.344Z,13.42
2022-09-23T10:35:13.479Z,13.47
2022-09-23T10:37:52.501Z,13.52
2022-09-23T10:40:48.318Z,13.59
2022-09-23T10:43:37.954Z,13.63
2022-09-23T10:46:26.418Z,13.72
2022-09-23T10:48:54.058Z,13.80
2022-09-23T10:51:32.208Z,13.91
2022-09-23T10:54:23.367Z,13.94
2022-09-23T10:57:02.092Z,14.04
2022-09-23T10:59:53.511Z,14.12
2022-09-23T11:02:29.868Z,14.14
2022-09-23T11:05:16.407Z,14.16
2022-09-23T11:07:44.471Z,14.22
2022-09-23T11:10:23.225Z,14.20
2022-09-23T11:12:57.345Z,14.20
2022-09-23T11:15:39.136Z,14.22
2022-09-23T11:18:09.915Z,14.27
2022-09-23T11:20:37.784Z,14.24
2022-09-23T11:23:24.188Z,14.19
2022-09-23T11:26:10.795Z,14.12
2022-09-23T11:28:57.504Z,14.08
2022-09-23T11:31:34.075Z,14.00
2022-09-23T11:34:22.454Z,13.89
2022-09-23T11:36:53.165Z,13.84
2022-09-23T11:39:24.271Z,13.84
2022-09-23T11:41:54.336Z,13.77
2022-09-23T11:44:42.829Z,13.73
2022-09-23T11:47:21.957Z,13.69
2022-09-23T11:49:52.825Z,13.70
2022-09-23T11:52:29.472Z,13.71
2022-09-23T11:54:57.520Z,13.74
2022-09-23T11:57:49.132Z,13.75
2022-09-23T12:00:36.179Z,13.78
2022-09-23T12:03:06.861Z,13.83
2022-09-23T12:05:40.233Z,13.86
2022-09-23T12:08:25.753Z,13.94
2022-09-23T12:11:12.469Z,14.02
2022-09-23T12:13:43.318Z,14.09
2022-09-23T12:16:26.311Z,14.13
2022-09-23T12:18:59.851Z,14.15
2022-09-23T12:21:50.177Z,14.16
2022-09-23T12:24:38.223Z,14.17
2022-09-23T12:27:11.007Z,14.23
2022-09-23T12:29:39.791Z,14.21
2022-09-23T12:32:10.162Z,14.19
2022-09-23T12:34:41.587Z,14.23
2022-09-23T12:37:09.249Z,14.29
2022-09-23T12:39:38.717Z,14.34
2022-09-23T12:42:15.698Z,14.37
2022-09-23T12:44:45.305Z,14.40
2022-09-23T12:47:24.843Z,14.43
2022-09-23T12:49:56.589Z,14.42
2022-09-23T12:52:30.911Z,14.43
2022-09-23T12:55:18.690Z,14.46
2022-09-23T12:57:47.592Z,14.50
2022-09-23T13:00:22.969Z,14.47
2022-09-23T13:03:11.275Z,14.43
2022-09-23T13:06:03.894Z,14.32
2022-09-23T13:08:32.294Z,14.24
2022-09-23T13:11:01.371Z,14.15
2022-09-23T13:13:40.754Z,14.08
2022-09-23T13:16:21.508Z,14.07
2022-09-23T13:18:49.336Z,14.07
2022-09-23T13:21:19.148Z,14.09
2022-09-23T13:24:05.668Z,14.10
2022-09-23T13:26:33.876Z,14.10
2022-09-23T13:29:02.629Z,14.12
2022-09-23T13:31:30.526Z,14.12
2022-09-23T13:34:05.644Z,14.12
2022-09-23T13:36:43.495Z,14.11
2022-09-23T13:39:16.058Z,14.13
2022-09-23T13:41:45.398Z,14.11
2022-09-23T13:44:17.027Z,14.12
2022-09-23T13:46:46.699Z,14.11
2022-09-23T13:49:35.289Z,14.09
2022-09-23T13:52:06.347Z,14.07
2022-09-23T13:54:49.409Z,14.06
2022-09-23T13:57:33.992Z,14.05
2022-09-23T14:00:02.567Z,14.03
2022-09-23T14:02:32.095Z,14.02
2022-09-23T14:05:11.147Z,14.04
2022-09-23T14:07:39.629Z,14.06
2022-09-23T14:10:08.316Z,14.08
2022-09-23T14:12:39.623Z,14.05
2022-09-23T14:15:14.066Z,14.01
2022-09-23T14:17:46.022Z,14.02
2022-09-23T14:20:15.038Z,14.02
2022-09-23T14:22:43.092Z,13.99
2022-09-23T14:25:15.480Z,13.96
2022-09-23T14:27:44.572Z,13.96
2022-09-23T14:30:18.710Z,13.98
2022-09-23T14:32:49.815Z,14.02
2022-09-23T14:35:21.818Z,14.01
2022-09-23T14:38:10.455Z,14.02
2022-09-23T14:40:49.308Z,13.99
2022-09-23T14:43:22.731Z,14.01
2022-09-23T14:45:56.048Z,14.01
2022-09-23T14:48:28.739Z,14.03
2022-09-23T14:50:58.388Z,14.04
2022-09-23T14:53:37.217Z,14.07
2022-09-23T14:56:09.940Z,14.06
2022-09-23T14:58:42.509Z,14.00
2022-09-23T15:01:22.186Z,13.94
2022-09-23T15:03:50.204Z,13.89
2022-09-23T15:06:18.155Z,13.85
2022-09-23T15:08:45.974Z,13.84
2022-09-23T15:11:13.953Z,13.80
2022-09-23T15:13:45.720Z,13.77
2022-09-23T15:16:15.413Z,13.74
2022-09-23T15:18:44.928Z,13.69
2022-09-23T15:21:14.119Z,13.63
2022-09-23T15:23:49.307Z,13.60
2022-09-23T15:26:17.016Z,13.56
2022-09-23T15:28:45.411Z,13.52
2022-09-23T15:31:17.728Z,13.49
2022-09-23T15:33:47.374Z,13.45
2022-09-23T15:36:20.056Z,13.43
2022-09-23T15:38:48.233Z,13.38
2022-09-23T15:41:17.529Z,13.35
2022-09-23T15:43:46.518Z,13.32
2022-09-23T15:46:17.301Z,13.29
2022-09-23T15:48:58.448Z,13.26
2022-09-23T15:51:27.312Z,13.25
2022-09-23T15:53:56.226Z,13.23
2022-09-23T15:56:24.570Z,13.19
2022-09-23T15:58:52.265Z,13.17
2022-09-23T16:01:25.460Z,13.10
2022-09-23T16:03:53.201Z,13.03
2022-09-23T16:06:20.865Z,12.97
2022-09-23T16:08:49.323Z,12.93
2022-09-23T16:11:21.989Z,12.85
2022-09-23T16:13:49.817Z,12.79
2022-09-23T16:16:21.289Z,12.72
2022-09-23T16:18:51.363Z,12.64
2022-09-23T16:21:20.356Z,12.55
2022-09-23T16:23:50.137Z,12.48
2022-09-23T16:26:22.175Z,12.39
2022-09-23T16:28:50.783Z,12.30
2022-09-23T16:31:18.967Z,12.20
2022-09-23T16:33:47.185Z,12.12
2022-09-23T16:36:31.873Z,12.03
2022-09-23T16:39:01.947Z,11.94
2022-09-23T16:41:31.560Z,11.87
2022-09-23T16:44:00.948Z,11.81
2022-09-23T16:46:29.775Z,11.75
2022-09-23T16:48:58.050Z,11.70
2022-09-23T16:51:40.659Z,11.64
2022-09-23T16:54:10.412Z,11.57
2022-09-23T16:56:40.422Z,11.53
2022-09-23T16:59:08.274Z,11.47
2022-09-23T17:01:54.587Z,11.42
2022-09-23T17:04:22.884Z,11.37
2022-09-23T17:06:51.612Z,11.31
2022-09-23T17:09:20.726Z,11.25
2022-09-23T17:11:51.927Z,11.21
2022-09-23T17:14:19.636Z,11.20
2022-09-23T17:16:47.495Z,11.18
2022-09-23T17:19:15.378Z,11.17
2022-09-23T17:21:43.174Z,11.15
2022-09-23T17:24:11.561Z,11.14
2022-09-23T17:26:39.287Z,11.13
2022-09-23T17:29:07.695Z,11.15
2022-09-23T17:31:36.095Z,11.13
2022-09-23T17:34:03.839Z,11.11
2022-09-23T17:36:31.973Z,11.02
2022-09-23T17:38:59.686Z,10.93
2022-09-23T17:41:28.238Z,10.87
2022-09-23T17:43:57.136Z,10.82
2022-09-23T17:46:24.896Z,10.81
2022-09-23T17:48:55.726Z,10.80
2022-09-23T17:51:25.336Z,10.79
2022-09-23T17:53:53.080Z,10.77
2022-09-23T17:56:22.823Z,10.75
2022-09-23T17:58:50.897Z,10.73
2022-09-23T18:01:20.109Z,10.69
2022-09-23T18:03:48.442Z,10.67
2022-09-23T18:06:17.197Z,10.67
2022-09-23T18:08:45.707Z,10.62
2022-09-23T18:11:20.394Z,10.57
2022-09-23T18:13:50.071Z,10.56
2022-09-23T18:16:17.959Z,10.55
2022-09-23T18:18:56.213Z,10.54
2022-09-23T18:21:24.869Z,10.50
2022-09-23T18:23:52.898Z,10.46
2022-09-23T18:26:22.207Z,10.42
2022-09-23T18:28:52.855Z,10.37
2022-09-23T18:31:20.614Z,10.34
2022-09-23T18:33:49.698Z,10.31
2022-09-23T18:36:17.871Z,10.31
2022-09-23T18:38:46.211Z,10.32
2022-09-23T18:41:14.483Z,10.30
2022-09-23T18:43:47.604Z,10.28
2022-09-23T18:46:17.605Z,10.24
2022-09-23T18:49:04.098Z,10.25
2022-09-23T18:51:34.653Z,10.23
2022-09-23T18:54:03.715Z,10.19
2022-09-23T18:56:39.965Z,10.16
2022-09-23T18:59:12.753Z,10.12
2022-09-23T19:01:40.764Z,10.10
2022-09-23T19:04:09.043Z,10.08
2022-09-23T19:06:37.482Z,10.07
2022-09-23T19:09:05.996Z,10.05
2022-09-23T19:11:36.330Z,10.07
2022-09-23T19:14:05.970Z,10.02
2022-09-23T19:16:34.990Z,9.96
2022-09-23T19:19:03.972Z,9.89
2022-09-23T19:21:31.753Z,9.82
2022-09-23T19:24:03.342Z,9.82
2022-09-23T19:26:33.635Z,9.78
2022-09-23T19:29:04.151Z,9.72
2022-09-23T19:31:36.049Z,9.70
2022-09-23T19:34:11.151Z,9.69
2022-09-23T19:36:40.594Z,9.63
2022-09-23T19:39:12.393Z,9.62
2022-09-23T19:41:40.872Z,9.59
2022-09-23T19:44:12.509Z,9.63
2022-09-23T19:46:45.894Z,9.66
2022-09-23T19:49:13.843Z,9.68
2022-09-23T19:51:44.421Z,9.66
2022-09-23T19:54:20.438Z,9.69
2022-09-23T19:56:50.029Z,9.71
2022-09-23T19:59:19.896Z,9.69
2022-09-23T20:01:48.366Z,9.65
2022-09-23T20:04:17.157Z,9.63
2022-09-23T20:06:49.613Z,9.64
2022-09-23T20:09:17.455Z,9.63
2022-09-23T20:11:45.441Z,9.63
2022-09-23T20:14:14.063Z,9.60
2022-09-23T20:16:42.369Z,9.56
2022-09-23T20:19:10.355Z,9.53
2022-09-23T20:21:38.324Z,9.51
2022-09-23T20:24:07.032Z,9.47
2022-09-23T20:26:53.985Z,9.38
2022-09-23T20:29:22.560Z,9.35
2022-09-23T20:31:50.492Z,9.35
2022-09-23T20:34:18.689Z,9.32
2022-09-23T20:36:48.763Z,9.31
2022-09-23T20:39:16.481Z,9.26
2022-09-23T20:41:44.294Z,9.24
2022-09-23T20:44:12.428Z,9.24
2022-09-23T20:46:47.553Z,9.25
2022-09-23T20:49:17.326Z,9.27
2022-09-23T20:51:47.645Z,9.31
2022-09-23T20:54:16.627Z,9.30
2022-09-23T20:56:44.696Z,9.32
2022-09-23T20:59:15.095Z,9.33
2022-09-23T21:01:43.372Z,9.28
2022-09-23T21:04:11.222Z,9.22
2022-09-23T21:06:39.950Z,9.16
2022-09-23T21:09:07.815Z,9.17
2022-09-23T21:11:35.611Z,9.16
2022-09-23T21:14:03.970Z,9.14
2022-09-23T21:16:31.988Z,9.14
2022-09-23T21:19:00.006Z,9.12
2022-09-23T21:21:27.701Z,9.11
2022-09-23T21:24:07.078Z,9.15
2022-09-23T21:26:47.435Z,9.20
2022-09-23T21:29:15.941Z,9.26
2022-09-23T21:31:43.879Z,9.28
2022-09-23T21:34:12.584Z,9.32
2022-09-23T21:36:43.223Z,9.31
2022-09-23T21:39:11.849Z,9.33
2022-09-23T21:41:40.286Z,9.33
2022-09-23T21:44:08.602Z,9.31
2022-09-23T21:46:36.998Z,9.29
2022-09-23T21:49:05.531Z,9.29
2022-09-23T21:51:42.365Z,9.23
2022-09-23T21:54:12.823Z,9.17
2022-09-23T21:56:40.584Z,9.11
2022-09-23T21:59:09.070Z,9.05
2022-09-23T22:01:38.307Z,9.01
2022-09-23T22:04:10.323Z,8.94
2022-09-23T22:06:40.473Z,8.90
2022-09-23T22:09:11.080Z,8.87
2022-09-23T22:11:58.292Z,8.83
2022-09-23T22:14:26.577Z,8.78
2022-09-23T22:16:59.253Z,8.76
2022-09-23T22:19:28.153Z,8.72
2022-09-23T22:21:56.256Z,8.72
2022-09-23T22:24:24.184Z,8.75
2022-09-23T22:26:51.893Z,8.76
2022-09-23T22:29:38.859Z,8.77
2022-09-23T22:32:28.543Z,8.85
2022-09-23T22:34:56.694Z,8.84
2022-09-23T22:37:26.223Z,8.83
2022-09-23T22:39:54.090Z,8.82
2022-09-23T22:42:22.545Z,8.81
2022-09-23T22:44:51.451Z,8.77
2022-09-23T22:47:19.933Z,8.78
2022-09-23T22:49:48.001Z,8.76
2022-09-23T22:52:21.176Z,8.71
2022-09-23T22:54:49.163Z,8.65
2022-09-23T22:57:19.179Z,8.61
2022-09-23T22:59:50.531Z,8.60
2022-09-23T23:02:19.159Z,8.58
2022-09-23T23:04:47.941Z,8.55
2022-09-23T23:07:17.704Z,8.53
2022-09-23T23:09:45.777Z,8.52
2022-09-23T23:12:13.510Z,8.57
2022-09-23T23:14:42.531Z,8.56
2022-09-23T23:17:10.400Z,8.57
2022-09-23T23:19:38.573Z,8.59
2022-09-23T23:22:06.344Z,8.58
2022-09-23T23:24:34.106Z,8.59
2022-09-23T23:27:01.970Z,8.56
2022-09-23T23:29:29.677Z,8.55
2022-09-23T23:31:57.365Z,8.53
2022-09-23T23:34:25.327Z,8.49
2022-09-23T23:36:55.073Z,8.48
2022-09-23T23:39:24.488Z,8.45
2022-09-23T23:41:54.264Z,8.45
2022-09-23T23:44:23.767Z,8.46
2022-09-23T23:46:51.959Z,8.45
2022-09-23T23:49:20.039Z,8.42
2022-09-23T23:51:48.025Z,8.40
2022-09-23T23:54:15.877Z,8.39
2022-09-23T23:56:44.025Z,8.37
2022-09-23T23:59:12.219Z,8.34
